sensor_id;sensor_type;location;lat;lon;timestamp;P1;durP1;ratioP1;P2;durP2;ratioP2
15358;SDS011;7779;49.596;11.070;2022-10-17T00:01:55;2.63;;;1.70;;
15358;SDS011;7779;49.596;11.070;2022-10-17T00:04:20;2.63;;;1.50;;
15358;SDS011;7779;49.596;11.070;2022-10-17T00:06:46;1.57;;;1.30;;
15358;SDS011;7779;49.596;11.070;2022-10-17T00:09:12;3.87;;;1.40;;
15358;SDS011;7779;49.596;11.070;2022-10-17T00:11:37;2.37;;;1.40;;
15358;SDS011;7779;49.596;11.070;2022-10-17T00:14:03;1.57;;;0.97;;
15358;SDS011;7779;49.596;11.070;2022-10-17T00:16:31;1.83;;;1.20;;
15358;SDS011;7779;49.596;11.070;2022-10-17T00:19:00;2.73;;;1.17;;
15358;SDS011;7779;49.596;11.070;2022-10-17T00:21:30;1.93;;;1.30;;
15358;SDS011;7779;49.596;11.070;2022-10-17T00:23:56;1.13;;;1.00;;
15358;SDS011;7779;49.596;11.070;2022-10-17T00:26:25;1.50;;;1.20;;
15358;SDS011;7779;49.596;11.070;2022-10-17T00:28:53;2.90;;;1.43;;
15358;SDS011;7779;49.596;11.070;2022-10-17T00:31:20;1.20;;;1.10;;
15358;SDS011;7779;49.596;11.070;2022-10-17T00:33:48;1.20;;;1.10;;
15358;SDS011;7779;49.596;11.070;2022-10-17T00:36:16;3.03;;;1.10;;
15358;SDS011;7779;49.596;11.070;2022-10-17T00:38:49;2.00;;;1.10;;
15358;SDS011;7779;49.596;11.070;2022-10-17T00:41:19;1.80;;;1.17;;
15358;SDS011;7779;49.596;11.070;2022-10-17T00:43:53;2.13;;;1.10;;
15358;SDS011;7779;49.596;11.070;2022-10-17T00:46:35;2.43;;;1.07;;
15358;SDS011;7779;49.596;11.070;2022-10-17T00:49:04;1.27;;;1.10;;
15358;SDS011;7779;49.596;11.070;2022-10-17T00:51:44;1.60;;;1.00;;
15358;SDS011;7779;49.596;11.070;2022-10-17T00:54:17;1.87;;;1.27;;
15358;SDS011;7779;49.596;11.070;2022-10-17T00:56:50;1.80;;;0.90;;
15358;SDS011;7779;49.596;11.070;2022-10-17T00:59:17;1.87;;;0.90;;
15358;SDS011;7779;49.596;11.070;2022-10-17T01:04:35;1.90;;;1.00;;
15358;SDS011;7779;49.596;11.070;2022-10-17T01:07:04;1.10;;;0.80;;
15358;SDS011;7779;49.596;11.070;2022-10-17T01:09:30;2.93;;;1.00;;
15358;SDS011;7779;49.596;11.070;2022-10-17T01:24:12;2.33;;;0.83;;
15358;SDS011;7779;49.596;11.070;2022-10-17T01:35:27;1.53;;;0.90;;
15358;SDS011;7779;49.596;11.070;2022-10-17T01:40:45;4.50;;;1.10;;
15358;SDS011;7779;49.596;11.070;2022-10-17T01:43:19;2.73;;;0.87;;
15358;SDS011;7779;49.596;11.070;2022-10-17T01:46:03;1.40;;;1.00;;
15358;SDS011;7779;49.596;11.070;2022-10-17T01:48:39;2.13;;;0.97;;
15358;SDS011;7779;49.596;11.070;2022-10-17T01:51:12;2.37;;;0.80;;
15358;SDS011;7779;49.596;11.070;2022-10-17T01:53:57;3.10;;;1.20;;
15358;SDS011;7779;49.596;11.070;2022-10-17T01:56:30;2.27;;;1.17;;
15358;SDS011;7779;49.596;11.070;2022-10-17T01:59:00;1.23;;;1.10;;
15358;SDS011;7779;49.596;11.070;2022-10-17T02:01:35;1.77;;;1.13;;
15358;SDS011;7779;49.596;11.070;2022-10-17T02:04:05;2.30;;;1.10;;
15358;SDS011;7779;49.596;11.070;2022-10-17T02:06:37;1.93;;;1.00;;
15358;SDS011;7779;49.596;11.070;2022-10-17T02:09:23;1.33;;;1.10;;
15358;SDS011;7779;49.596;11.070;2022-10-17T02:21:19;2.47;;;1.50;;
15358;SDS011;7779;49.596;11.070;2022-10-17T02:24:16;3.07;;;1.60;;
15358;SDS011;7779;49.596;11.070;2022-10-17T02:27:14;3.10;;;1.43;;
15358;SDS011;7779;49.596;11.070;2022-10-17T02:30:02;3.07;;;1.23;;
15358;SDS011;7779;49.596;11.070;2022-10-17T02:35:19;3.50;;;1.73;;
15358;SDS011;7779;49.596;11.070;2022-10-17T02:37:46;1.63;;;1.53;;
15358;SDS011;7779;49.596;11.070;2022-10-17T02:40:16;3.37;;;1.30;;
15358;SDS011;7779;49.596;11.070;2022-10-17T02:42:46;2.10;;;1.47;;
15358;SDS011;7779;49.596;11.070;2022-10-17T02:45:15;2.33;;;1.40;;
15358;SDS011;7779;49.596;11.070;2022-10-17T02:47:54;2.47;;;1.50;;
15358;SDS011;7779;49.596;11.070;2022-10-17T02:53:39;3.40;;;1.33;;
15358;SDS011;7779;49.596;11.070;2022-10-17T02:56:38;1.57;;;1.30;;
15358;SDS011;7779;49.596;11.070;2022-10-17T02:59:14;3.73;;;1.37;;
15358;SDS011;7779;49.596;11.070;2022-10-17T03:01:47;1.77;;;1.67;;
15358;SDS011;7779;49.596;11.070;2022-10-17T03:04:15;2.53;;;1.40;;
15358;SDS011;7779;49.596;11.070;2022-10-17T03:06:42;3.07;;;1.40;;
15358;SDS011;7779;49.596;11.070;2022-10-17T03:09:11;2.30;;;1.33;;
15358;SDS011;7779;49.596;11.070;2022-10-17T03:11:37;2.53;;;1.37;;
15358;SDS011;7779;49.596;11.070;2022-10-17T03:14:04;1.07;;;0.97;;
15358;SDS011;7779;49.596;11.070;2022-10-17T03:16:30;1.80;;;1.10;;
15358;SDS011;7779;49.596;11.070;2022-10-17T03:18:56;3.70;;;1.40;;
15358;SDS011;7779;49.596;11.070;2022-10-17T03:21:22;1.40;;;1.30;;
15358;SDS011;7779;49.596;11.070;2022-10-17T03:23:47;3.07;;;1.60;;
15358;SDS011;7779;49.596;11.070;2022-10-17T03:26:14;2.07;;;1.60;;
15358;SDS011;7779;49.596;11.070;2022-10-17T03:28:40;1.60;;;1.50;;
15358;SDS011;7779;49.596;11.070;2022-10-17T03:31:10;2.40;;;1.50;;
15358;SDS011;7779;49.596;11.070;2022-10-17T03:33:39;2.03;;;1.30;;
15358;SDS011;7779;49.596;11.070;2022-10-17T03:36:10;2.57;;;1.30;;
15358;SDS011;7779;49.596;11.070;2022-10-17T03:38:39;2.30;;;1.87;;
15358;SDS011;7779;49.596;11.070;2022-10-17T03:41:06;1.67;;;1.50;;
15358;SDS011;7779;49.596;11.070;2022-10-17T03:43:32;2.30;;;1.63;;
15358;SDS011;7779;49.596;11.070;2022-10-17T03:45:59;3.70;;;1.63;;
15358;SDS011;7779;49.596;11.070;2022-10-17T03:48:28;2.30;;;1.70;;
15358;SDS011;7779;49.596;11.070;2022-10-17T03:51:02;3.37;;;1.70;;
15358;SDS011;7779;49.596;11.070;2022-10-17T03:53:33;2.83;;;2.00;;
15358;SDS011;7779;49.596;11.070;2022-10-17T03:56:09;2.33;;;1.47;;
15358;SDS011;7779;49.596;11.070;2022-10-17T03:58:54;3.23;;;1.53;;
15358;SDS011;7779;49.596;11.070;2022-10-17T04:01:20;2.23;;;1.70;;
15358;SDS011;7779;49.596;11.070;2022-10-17T04:03:50;1.30;;;1.20;;
15358;SDS011;7779;49.596;11.070;2022-10-17T04:06:18;3.60;;;1.53;;
15358;SDS011;7779;49.596;11.070;2022-10-17T04:08:45;3.43;;;1.47;;
15358;SDS011;7779;49.596;11.070;2022-10-17T04:11:20;2.27;;;1.53;;
15358;SDS011;7779;49.596;11.070;2022-10-17T04:13:47;2.40;;;1.37;;
15358;SDS011;7779;49.596;11.070;2022-10-17T04:16:18;3.70;;;1.67;;
15358;SDS011;7779;49.596;11.070;2022-10-17T04:18:56;3.53;;;1.80;;
15358;SDS011;7779;49.596;11.070;2022-10-17T04:21:26;2.83;;;1.50;;
15358;SDS011;7779;49.596;11.070;2022-10-17T04:23:54;2.67;;;1.77;;
15358;SDS011;7779;49.596;11.070;2022-10-17T04:26:40;2.83;;;1.70;;
15358;SDS011;7779;49.596;11.070;2022-10-17T04:29:07;2.30;;;1.77;;
15358;SDS011;7779;49.596;11.070;2022-10-17T04:31:33;1.80;;;1.70;;
15358;SDS011;7779;49.596;11.070;2022-10-17T04:34:05;3.10;;;1.93;;
15358;SDS011;7779;49.596;11.070;2022-10-17T04:36:32;2.87;;;2.13;;
15358;SDS011;7779;49.596;11.070;2022-10-17T04:38:58;1.97;;;1.70;;
15358;SDS011;7779;49.596;11.070;2022-10-17T04:41:28;3.43;;;2.07;;
15358;SDS011;7779;49.596;11.070;2022-10-17T04:43:54;5.77;;;3.13;;
15358;SDS011;7779;49.596;11.070;2022-10-17T04:46:20;3.20;;;2.83;;
15358;SDS011;7779;49.596;11.070;2022-10-17T04:48:47;2.60;;;2.40;;
15358;SDS011;7779;49.596;11.070;2022-10-17T04:51:14;4.17;;;2.40;;
15358;SDS011;7779;49.596;11.070;2022-10-17T04:54:00;3.43;;;2.77;;
15358;SDS011;7779;49.596;11.070;2022-10-17T04:56:27;4.57;;;3.23;;
15358;SDS011;7779;49.596;11.070;2022-10-17T04:58:53;3.70;;;2.90;;
15358;SDS011;7779;49.596;11.070;2022-10-17T05:01:20;4.30;;;2.80;;
15358;SDS011;7779;49.596;11.070;2022-10-17T05:03:51;4.20;;;3.00;;
15358;SDS011;7779;49.596;11.070;2022-10-17T05:06:18;4.13;;;2.60;;
15358;SDS011;7779;49.596;11.070;2022-10-17T05:09:06;3.73;;;2.33;;
15358;SDS011;7779;49.596;11.070;2022-10-17T05:11:32;5.70;;;2.70;;
15358;SDS011;7779;49.596;11.070;2022-10-17T05:13:58;3.53;;;2.30;;
15358;SDS011;7779;49.596;11.070;2022-10-17T05:16:28;2.40;;;2.20;;
15358;SDS011;7779;49.596;11.070;2022-10-17T05:18:55;2.57;;;2.37;;
15358;SDS011;7779;49.596;11.070;2022-10-17T05:21:26;4.77;;;2.17;;
15358;SDS011;7779;49.596;11.070;2022-10-17T05:23:54;3.47;;;2.23;;
15358;SDS011;7779;49.596;11.070;2022-10-17T05:26:21;4.80;;;2.20;;
15358;SDS011;7779;49.596;11.070;2022-10-17T05:28:48;5.07;;;2.37;;
15358;SDS011;7779;49.596;11.070;2022-10-17T05:31:17;3.73;;;2.40;;
15358;SDS011;7779;49.596;11.070;2022-10-17T05:33:43;2.60;;;2.20;;
15358;SDS011;7779;49.596;11.070;2022-10-17T05:36:09;3.00;;;2.20;;
15358;SDS011;7779;49.596;11.070;2022-10-17T05:38:35;2.33;;;2.10;;
15358;SDS011;7779;49.596;11.070;2022-10-17T05:41:02;3.53;;;2.00;;
15358;SDS011;7779;49.596;11.070;2022-10-17T05:43:31;3.20;;;2.23;;
15358;SDS011;7779;49.596;11.070;2022-10-17T05:45:58;3.43;;;2.37;;
15358;SDS011;7779;49.596;11.070;2022-10-17T05:48:31;3.30;;;2.37;;
15358;SDS011;7779;49.596;11.070;2022-10-17T05:50:58;4.27;;;2.03;;
15358;SDS011;7779;49.596;11.070;2022-10-17T05:53:34;3.37;;;3.00;;
15358;SDS011;7779;49.596;11.070;2022-10-17T05:56:08;2.77;;;2.23;;
15358;SDS011;7779;49.596;11.070;2022-10-17T05:58:43;2.63;;;1.90;;
15358;SDS011;7779;49.596;11.070;2022-10-17T06:01:18;3.13;;;1.87;;
15358;SDS011;7779;49.596;11.070;2022-10-17T06:03:44;2.30;;;1.83;;
15358;SDS011;7779;49.596;11.070;2022-10-17T06:06:11;2.10;;;1.63;;
15358;SDS011;7779;49.596;11.070;2022-10-17T06:08:42;2.53;;;1.90;;
15358;SDS011;7779;49.596;11.070;2022-10-17T06:11:12;3.43;;;1.70;;
15358;SDS011;7779;49.596;11.070;2022-10-17T06:13:38;4.57;;;1.70;;
15358;SDS011;7779;49.596;11.070;2022-10-17T06:16:11;3.20;;;1.83;;
15358;SDS011;7779;49.596;11.070;2022-10-17T06:18:37;2.47;;;1.60;;
15358;SDS011;7779;49.596;11.070;2022-10-17T06:21:07;3.60;;;1.67;;
15358;SDS011;7779;49.596;11.070;2022-10-17T06:23:40;2.80;;;1.87;;
15358;SDS011;7779;49.596;11.070;2022-10-17T06:26:17;4.33;;;1.50;;
15358;SDS011;7779;49.596;11.070;2022-10-17T06:28:44;1.67;;;1.57;;
15358;SDS011;7779;49.596;11.070;2022-10-17T06:31:11;2.20;;;1.90;;
15358;SDS011;7779;49.596;11.070;2022-10-17T06:33:40;3.27;;;1.93;;
15358;SDS011;7779;49.596;11.070;2022-10-17T06:36:08;3.43;;;2.10;;
15358;SDS011;7779;49.596;11.070;2022-10-17T06:38:37;2.80;;;1.80;;
15358;SDS011;7779;49.596;11.070;2022-10-17T06:41:12;3.93;;;2.00;;
15358;SDS011;7779;49.596;11.070;2022-10-17T06:43:42;2.80;;;1.70;;
15358;SDS011;7779;49.596;11.070;2022-10-17T06:46:37;2.00;;;1.60;;
15358;SDS011;7779;49.596;11.070;2022-10-17T06:49:06;2.20;;;1.97;;
15358;SDS011;7779;49.596;11.070;2022-10-17T06:51:54;3.43;;;1.63;;
15358;SDS011;7779;49.596;11.070;2022-10-17T06:54:27;4.10;;;1.80;;
15358;SDS011;7779;49.596;11.070;2022-10-17T06:57:02;4.33;;;2.00;;
15358;SDS011;7779;49.596;11.070;2022-10-17T06:59:46;1.97;;;1.60;;
15358;SDS011;7779;49.596;11.070;2022-10-17T07:02:19;2.67;;;1.87;;
15358;SDS011;7779;49.596;11.070;2022-10-17T07:04:48;1.70;;;1.60;;
15358;SDS011;7779;49.596;11.070;2022-10-17T07:07:14;2.20;;;2.00;;
15358;SDS011;7779;49.596;11.070;2022-10-17T07:09:40;2.20;;;1.70;;
15358;SDS011;7779;49.596;11.070;2022-10-17T07:12:07;2.17;;;1.87;;
15358;SDS011;7779;49.596;11.070;2022-10-17T07:14:33;4.97;;;1.97;;
15358;SDS011;7779;49.596;11.070;2022-10-17T07:16:59;4.20;;;1.77;;
15358;SDS011;7779;49.596;11.070;2022-10-17T07:19:28;2.37;;;1.80;;
15358;SDS011;7779;49.596;11.070;2022-10-17T07:21:53;2.07;;;1.77;;
15358;SDS011;7779;49.596;11.070;2022-10-17T07:24:20;2.40;;;1.97;;
15358;SDS011;7779;49.596;11.070;2022-10-17T07:26:54;2.93;;;2.03;;
15358;SDS011;7779;49.596;11.070;2022-10-17T07:29:20;3.07;;;2.10;;
15358;SDS011;7779;49.596;11.070;2022-10-17T07:31:54;2.67;;;1.83;;
15358;SDS011;7779;49.596;11.070;2022-10-17T07:34:21;3.97;;;1.67;;
15358;SDS011;7779;49.596;11.070;2022-10-17T07:36:52;3.70;;;1.57;;
15358;SDS011;7779;49.596;11.070;2022-10-17T07:39:18;2.10;;;1.73;;
15358;SDS011;7779;49.596;11.070;2022-10-17T07:41:44;2.10;;;1.80;;
15358;SDS011;7779;49.596;11.070;2022-10-17T07:44:10;3.37;;;1.50;;
15358;SDS011;7779;49.596;11.070;2022-10-17T07:46:42;3.53;;;1.47;;
15358;SDS011;7779;49.596;11.070;2022-10-17T07:49:08;3.43;;;1.63;;
15358;SDS011;7779;49.596;11.070;2022-10-17T07:51:33;1.97;;;1.30;;
15358;SDS011;7779;49.596;11.070;2022-10-17T07:53:59;1.80;;;1.50;;
15358;SDS011;7779;49.596;11.070;2022-10-17T07:56:25;1.60;;;1.50;;
15358;SDS011;7779;49.596;11.070;2022-10-17T07:58:51;1.83;;;1.70;;
15358;SDS011;7779;49.596;11.070;2022-10-17T08:01:17;1.83;;;1.50;;
15358;SDS011;7779;49.596;11.070;2022-10-17T08:03:43;4.00;;;1.70;;
15358;SDS011;7779;49.596;11.070;2022-10-17T08:06:11;4.47;;;1.70;;
15358;SDS011;7779;49.596;11.070;2022-10-17T08:08:38;2.20;;;1.47;;
15358;SDS011;7779;49.596;11.070;2022-10-17T08:11:06;2.57;;;1.50;;
15358;SDS011;7779;49.596;11.070;2022-10-17T08:13:35;1.60;;;1.50;;
15358;SDS011;7779;49.596;11.070;2022-10-17T08:16:05;1.70;;;1.60;;
15358;SDS011;7779;49.596;11.070;2022-10-17T08:18:34;2.00;;;1.80;;
15358;SDS011;7779;49.596;11.070;2022-10-17T08:21:03;1.97;;;1.77;;
15358;SDS011;7779;49.596;11.070;2022-10-17T08:23:32;2.73;;;1.50;;
15358;SDS011;7779;49.596;11.070;2022-10-17T08:25:59;1.60;;;1.50;;
15358;SDS011;7779;49.596;11.070;2022-10-17T08:28:27;1.70;;;1.50;;
15358;SDS011;7779;49.596;11.070;2022-10-17T08:31:00;2.00;;;1.43;;
15358;SDS011;7779;49.596;11.070;2022-10-17T08:33:28;1.57;;;1.40;;
15358;SDS011;7779;49.596;11.070;2022-10-17T08:35:54;2.00;;;1.63;;
15358;SDS011;7779;49.596;11.070;2022-10-17T08:38:22;1.73;;;1.50;;
15358;SDS011;7779;49.596;11.070;2022-10-17T08:40:48;1.70;;;1.60;;
15358;SDS011;7779;49.596;11.070;2022-10-17T08:46:06;5.50;;;2.17;;
15358;SDS011;7779;49.596;11.070;2022-10-17T08:48:36;2.57;;;1.50;;
15358;SDS011;7779;49.596;11.070;2022-10-17T08:51:26;1.50;;;1.40;;
15358;SDS011;7779;49.596;11.070;2022-10-17T08:56:52;1.30;;;1.20;;
15358;SDS011;7779;49.596;11.070;2022-10-17T08:59:21;2.93;;;1.50;;
15358;SDS011;7779;49.596;11.070;2022-10-17T09:02:17;2.00;;;1.53;;
15358;SDS011;7779;49.596;11.070;2022-10-17T09:05:13;2.07;;;1.60;;
15358;SDS011;7779;49.596;11.070;2022-10-17T09:10:57;2.10;;;1.50;;
15358;SDS011;7779;49.596;11.070;2022-10-17T09:13:42;1.40;;;1.30;;
15358;SDS011;7779;49.596;11.070;2022-10-17T09:16:19;2.93;;;1.63;;
15358;SDS011;7779;49.596;11.070;2022-10-17T09:19:10;1.70;;;1.60;;
15358;SDS011;7779;49.596;11.070;2022-10-17T09:21:49;2.07;;;1.87;;
15358;SDS011;7779;49.596;11.070;2022-10-17T09:24:36;1.70;;;1.40;;
15358;SDS011;7779;49.596;11.070;2022-10-17T09:27:32;1.80;;;1.50;;
15358;SDS011;7779;49.596;11.070;2022-10-17T09:32:57;1.50;;;1.40;;
15358;SDS011;7779;49.596;11.070;2022-10-17T09:35:23;2.27;;;1.73;;
15358;SDS011;7779;49.596;11.070;2022-10-17T09:37:52;1.50;;;1.40;;
15358;SDS011;7779;49.596;11.070;2022-10-17T09:40:21;4.73;;;1.53;;
15358;SDS011;7779;49.596;11.070;2022-10-17T09:42:55;2.07;;;1.70;;
15358;SDS011;7779;49.596;11.070;2022-10-17T09:45:22;2.07;;;1.80;;
15358;SDS011;7779;49.596;11.070;2022-10-17T09:48:03;2.53;;;1.70;;
15358;SDS011;7779;49.596;11.070;2022-10-17T09:50:55;2.10;;;1.90;;
15358;SDS011;7779;49.596;11.070;2022-10-17T09:53:23;2.00;;;1.80;;
15358;SDS011;7779;49.596;11.070;2022-10-17T09:55:58;1.60;;;1.50;;
15358;SDS011;7779;49.596;11.070;2022-10-17T10:01:17;1.70;;;1.60;;
15358;SDS011;7779;49.596;11.070;2022-10-17T10:03:47;2.00;;;1.80;;
15358;SDS011;7779;49.596;11.070;2022-10-17T10:06:33;2.53;;;1.67;;
15358;SDS011;7779;49.596;11.070;2022-10-17T10:09:00;2.17;;;1.60;;
15358;SDS011;7779;49.596;11.070;2022-10-17T10:11:49;1.83;;;1.60;;
15358;SDS011;7779;49.596;11.070;2022-10-17T10:14:20;1.63;;;1.53;;
15358;SDS011;7779;49.596;11.070;2022-10-17T10:16:48;1.97;;;1.70;;
15358;SDS011;7779;49.596;11.070;2022-10-17T10:19:25;2.10;;;1.90;;
15358;SDS011;7779;49.596;11.070;2022-10-17T10:24:29;5.80;;;1.70;;
15358;SDS011;7779;49.596;11.070;2022-10-17T10:26:59;3.47;;;1.70;;
15358;SDS011;7779;49.596;11.070;2022-10-17T10:29:30;2.60;;;2.00;;
15358;SDS011;7779;49.596;11.070;2022-10-17T10:34:55;1.70;;;1.60;;
15358;SDS011;7779;49.596;11.070;2022-10-17T10:37:44;1.60;;;1.50;;
15358;SDS011;7779;49.596;11.070;2022-10-17T10:43:01;2.03;;;1.90;;
15358;SDS011;7779;49.596;11.070;2022-10-17T10:48:20;1.93;;;1.83;;
15358;SDS011;7779;49.596;11.070;2022-10-17T10:53:32;2.23;;;2.07;;
15358;SDS011;7779;49.596;11.070;2022-10-17T10:56:28;2.10;;;1.90;;
15358;SDS011;7779;49.596;11.070;2022-10-17T10:59:28;2.30;;;2.03;;
15358;SDS011;7779;49.596;11.070;2022-10-17T11:02:17;2.40;;;2.20;;
15358;SDS011;7779;49.596;11.070;2022-10-17T11:05:19;2.50;;;2.30;;
15358;SDS011;7779;49.596;11.070;2022-10-17T11:08:05;2.47;;;2.27;;
15358;SDS011;7779;49.596;11.070;2022-10-17T11:10:56;2.43;;;2.23;;
15358;SDS011;7779;49.596;11.070;2022-10-17T11:13:25;2.60;;;2.40;;
15358;SDS011;7779;49.596;11.070;2022-10-17T11:15:58;3.07;;;2.73;;
15358;SDS011;7779;49.596;11.070;2022-10-17T11:18:43;2.77;;;2.57;;
15358;SDS011;7779;49.596;11.070;2022-10-17T11:24:51;2.30;;;2.10;;
15358;SDS011;7779;49.596;11.070;2022-10-17T11:27:24;2.50;;;2.30;;
15358;SDS011;7779;49.596;11.070;2022-10-17T11:29:54;2.33;;;2.13;;
15358;SDS011;7779;49.596;11.070;2022-10-17T11:32:27;5.07;;;2.57;;
15358;SDS011;7779;49.596;11.070;2022-10-17T11:35:25;3.50;;;2.90;;
15358;SDS011;7779;49.596;11.070;2022-10-17T11:40:30;2.70;;;2.50;;
15358;SDS011;7779;49.596;11.070;2022-10-17T11:43:00;3.10;;;2.70;;
15358;SDS011;7779;49.596;11.070;2022-10-17T11:45:41;3.20;;;2.90;;
15358;SDS011;7779;49.596;11.070;2022-10-17T11:48:27;4.50;;;2.80;;
15358;SDS011;7779;49.596;11.070;2022-10-17T11:51:13;2.97;;;2.50;;
15358;SDS011;7779;49.596;11.070;2022-10-17T11:56:50;2.80;;;2.50;;
15358;SDS011;7779;49.596;11.070;2022-10-17T11:59:47;2.40;;;2.20;;
15358;SDS011;7779;49.596;11.070;2022-10-17T12:05:51;2.40;;;2.20;;
15358;SDS011;7779;49.596;11.070;2022-10-17T12:11:56;2.77;;;2.10;;
15358;SDS011;7779;49.596;11.070;2022-10-17T12:22:59;2.10;;;1.90;;
15358;SDS011;7779;49.596;11.070;2022-10-17T12:25:31;2.20;;;2.00;;
15358;SDS011;7779;49.596;11.070;2022-10-17T12:30:47;2.30;;;2.10;;
15358;SDS011;7779;49.596;11.070;2022-10-17T12:33:16;2.20;;;2.10;;
15358;SDS011;7779;49.596;11.070;2022-10-17T12:35:47;2.87;;;2.10;;
15358;SDS011;7779;49.596;11.070;2022-10-17T12:45:49;1.87;;;1.73;;
15358;SDS011;7779;49.596;11.070;2022-10-17T12:51:08;2.43;;;2.10;;
15358;SDS011;7779;49.596;11.070;2022-10-17T12:54:07;2.40;;;2.20;;
15358;SDS011;7779;49.596;11.070;2022-10-17T12:56:40;2.20;;;2.00;;
15358;SDS011;7779;49.596;11.070;2022-10-17T12:59:14;2.33;;;2.13;;
15358;SDS011;7779;49.596;11.070;2022-10-17T13:01:46;1.87;;;1.77;;
15358;SDS011;7779;49.596;11.070;2022-10-17T13:04:17;2.17;;;1.93;;
15358;SDS011;7779;49.596;11.070;2022-10-17T13:06:45;2.20;;;2.00;;
15358;SDS011;7779;49.596;11.070;2022-10-17T13:09:24;2.20;;;1.90;;
15358;SDS011;7779;49.596;11.070;2022-10-17T13:11:54;3.87;;;1.93;;
15358;SDS011;7779;49.596;11.070;2022-10-17T13:14:24;2.30;;;2.10;;
15358;SDS011;7779;49.596;11.070;2022-10-17T13:16:56;2.83;;;1.80;;
15358;SDS011;7779;49.596;11.070;2022-10-17T13:19:30;2.00;;;1.90;;
15358;SDS011;7779;49.596;11.070;2022-10-17T13:22:15;2.07;;;1.80;;
15358;SDS011;7779;49.596;11.070;2022-10-17T13:24:49;2.20;;;2.00;;
15358;SDS011;7779;49.596;11.070;2022-10-17T13:29:57;2.10;;;1.90;;
15358;SDS011;7779;49.596;11.070;2022-10-17T13:32:33;2.13;;;1.93;;
15358;SDS011;7779;49.596;11.070;2022-10-17T13:35:06;2.20;;;2.00;;
15358;SDS011;7779;49.596;11.070;2022-10-17T13:37:35;2.00;;;1.90;;
15358;SDS011;7779;49.596;11.070;2022-10-17T13:40:05;1.97;;;1.87;;
15358;SDS011;7779;49.596;11.070;2022-10-17T13:42:38;3.47;;;1.87;;
15358;SDS011;7779;49.596;11.070;2022-10-17T13:45:15;1.77;;;1.67;;
15358;SDS011;7779;49.596;11.070;2022-10-17T13:47:51;2.20;;;1.80;;
15358;SDS011;7779;49.596;11.070;2022-10-17T13:50:23;3.67;;;1.90;;
15358;SDS011;7779;49.596;11.070;2022-10-17T13:53:17;2.10;;;2.00;;
15358;SDS011;7779;49.596;11.070;2022-10-17T13:58:53;2.13;;;1.73;;
15358;SDS011;7779;49.596;11.070;2022-10-17T14:01:26;2.40;;;1.90;;
15358;SDS011;7779;49.596;11.070;2022-10-17T14:03:53;2.00;;;1.90;;
15358;SDS011;7779;49.596;11.070;2022-10-17T14:06:21;2.17;;;2.00;;
15358;SDS011;7779;49.596;11.070;2022-10-17T14:08:59;4.23;;;1.97;;
15358;SDS011;7779;49.596;11.070;2022-10-17T14:11:37;2.03;;;1.77;;
15358;SDS011;7779;49.596;11.070;2022-10-17T14:14:06;2.27;;;2.07;;
15358;SDS011;7779;49.596;11.070;2022-10-17T14:16:42;1.77;;;1.67;;
15358;SDS011;7779;49.596;11.070;2022-10-17T14:19:28;1.90;;;1.80;;
15358;SDS011;7779;49.596;11.070;2022-10-17T14:22:17;2.53;;;1.80;;
15358;SDS011;7779;49.596;11.070;2022-10-17T14:24:46;1.90;;;1.60;;
15358;SDS011;7779;49.596;11.070;2022-10-17T14:30:06;1.93;;;1.73;;
15358;SDS011;7779;49.596;11.070;2022-10-17T14:32:57;1.80;;;1.70;;
15358;SDS011;7779;49.596;11.070;2022-10-17T14:35:27;2.03;;;1.80;;
15358;SDS011;7779;49.596;11.070;2022-10-17T14:38:01;2.00;;;1.80;;
15358;SDS011;7779;49.596;11.070;2022-10-17T14:40:30;2.67;;;1.70;;
15358;SDS011;7779;49.596;11.070;2022-10-17T14:42:59;1.80;;;1.70;;
15358;SDS011;7779;49.596;11.070;2022-10-17T14:45:32;2.33;;;2.13;;
15358;SDS011;7779;49.596;11.070;2022-10-17T14:48:10;2.07;;;1.60;;
15358;SDS011;7779;49.596;11.070;2022-10-17T14:50:41;2.60;;;1.80;;
15358;SDS011;7779;49.596;11.070;2022-10-17T14:53:31;3.00;;;1.97;;
15358;SDS011;7779;49.596;11.070;2022-10-17T14:55:57;3.70;;;1.30;;
15358;SDS011;7779;49.596;11.070;2022-10-17T14:58:27;1.73;;;1.63;;
15358;SDS011;7779;49.596;11.070;2022-10-17T15:00:56;2.13;;;1.67;;
15358;SDS011;7779;49.596;11.070;2022-10-17T15:03:23;1.90;;;1.80;;
15358;SDS011;7779;49.596;11.070;2022-10-17T15:05:50;1.80;;;1.70;;
15358;SDS011;7779;49.596;11.070;2022-10-17T15:08:19;2.47;;;1.70;;
15358;SDS011;7779;49.596;11.070;2022-10-17T15:10:48;1.80;;;1.70;;
15358;SDS011;7779;49.596;11.070;2022-10-17T15:13:15;2.90;;;1.67;;
15358;SDS011;7779;49.596;11.070;2022-10-17T15:15:42;1.90;;;1.60;;
15358;SDS011;7779;49.596;11.070;2022-10-17T15:18:11;1.90;;;1.70;;
15358;SDS011;7779;49.596;11.070;2022-10-17T15:20:38;2.43;;;2.00;;
15358;SDS011;7779;49.596;11.070;2022-10-17T15:23:04;2.50;;;2.00;;
15358;SDS011;7779;49.596;11.070;2022-10-17T15:25:30;1.60;;;1.50;;
15358;SDS011;7779;49.596;11.070;2022-10-17T15:27:57;2.97;;;1.70;;
15358;SDS011;7779;49.596;11.070;2022-10-17T15:30:30;1.83;;;1.67;;
15358;SDS011;7779;49.596;11.070;2022-10-17T15:32:59;2.23;;;1.80;;
15358;SDS011;7779;49.596;11.070;2022-10-17T15:35:25;2.20;;;2.00;;
15358;SDS011;7779;49.596;11.070;2022-10-17T15:37:52;2.27;;;1.70;;
15358;SDS011;7779;49.596;11.070;2022-10-17T15:42:50;2.33;;;1.97;;
15358;SDS011;7779;49.596;11.070;2022-10-17T15:45:17;2.13;;;1.90;;
15358;SDS011;7779;49.596;11.070;2022-10-17T15:47:52;3.07;;;1.80;;
15358;SDS011;7779;49.596;11.070;2022-10-17T15:50:24;2.03;;;1.90;;
15358;SDS011;7779;49.596;11.070;2022-10-17T15:52:52;3.47;;;2.00;;
15358;SDS011;7779;49.596;11.070;2022-10-17T15:55:18;1.80;;;1.70;;
15358;SDS011;7779;49.596;11.070;2022-10-17T15:57:45;3.47;;;1.87;;
15358;SDS011;7779;49.596;11.070;2022-10-17T16:00:17;2.53;;;1.80;;
15358;SDS011;7779;49.596;11.070;2022-10-17T16:02:47;1.87;;;1.67;;
15358;SDS011;7779;49.596;11.070;2022-10-17T16:05:18;1.80;;;1.63;;
15358;SDS011;7779;49.596;11.070;2022-10-17T16:07:50;1.83;;;1.73;;
15358;SDS011;7779;49.596;11.070;2022-10-17T16:10:20;1.73;;;1.60;;
15358;SDS011;7779;49.596;11.070;2022-10-17T16:12:47;3.00;;;2.30;;
15358;SDS011;7779;49.596;11.070;2022-10-17T16:17:47;2.40;;;2.20;;
15358;SDS011;7779;49.596;11.070;2022-10-17T16:20:18;4.60;;;2.70;;
15358;SDS011;7779;49.596;11.070;2022-10-17T16:22:45;3.07;;;2.50;;
15358;SDS011;7779;49.596;11.070;2022-10-17T16:25:16;7.40;;;3.50;;
15358;SDS011;7779;49.596;11.070;2022-10-17T16:27:47;4.63;;;2.90;;
15358;SDS011;7779;49.596;11.070;2022-10-17T16:30:16;3.30;;;2.80;;
15358;SDS011;7779;49.596;11.070;2022-10-17T16:32:43;4.93;;;2.70;;
15358;SDS011;7779;49.596;11.070;2022-10-17T16:35:10;4.50;;;3.17;;
15358;SDS011;7779;49.596;11.070;2022-10-17T16:37:53;7.33;;;4.50;;
15358;SDS011;7779;49.596;11.070;2022-10-17T16:40:20;7.93;;;5.00;;
15358;SDS011;7779;49.596;11.070;2022-10-17T16:42:46;8.93;;;4.23;;
15358;SDS011;7779;49.596;11.070;2022-10-17T16:45:16;5.53;;;3.77;;
15358;SDS011;7779;49.596;11.070;2022-10-17T16:47:45;5.93;;;3.17;;
15358;SDS011;7779;49.596;11.070;2022-10-17T16:50:13;4.97;;;3.37;;
15358;SDS011;7779;49.596;11.070;2022-10-17T16:52:40;4.50;;;3.30;;
15358;SDS011;7779;49.596;11.070;2022-10-17T16:55:06;3.67;;;2.93;;
15358;SDS011;7779;49.596;11.070;2022-10-17T16:57:33;3.90;;;2.90;;
15358;SDS011;7779;49.596;11.070;2022-10-17T16:59:59;3.50;;;3.20;;
15358;SDS011;7779;49.596;11.070;2022-10-17T17:02:25;3.90;;;2.60;;
15358;SDS011;7779;49.596;11.070;2022-10-17T17:04:51;2.67;;;2.47;;
15358;SDS011;7779;49.596;11.070;2022-10-17T17:07:16;3.10;;;2.63;;
15358;SDS011;7779;49.596;11.070;2022-10-17T17:09:43;5.73;;;2.57;;
15358;SDS011;7779;49.596;11.070;2022-10-17T17:12:09;4.73;;;2.73;;
15358;SDS011;7779;49.596;11.070;2022-10-17T17:14:35;2.60;;;2.40;;
15358;SDS011;7779;49.596;11.070;2022-10-17T17:17:02;5.73;;;2.60;;
15358;SDS011;7779;49.596;11.070;2022-10-17T17:19:27;2.77;;;2.43;;